KIBM

Kimball Municipal / Robert E Arraj Field Airport

Kimball, Nebraska, USA
METAR KIBM 230315Z AUTO 27007G16KT 10SM -TSRA SCT080 OVC110 19/11 A2996 RMK AO2 LTG DSNT NW T01870106
Observed Flight Rules
May-23 @ 03:15 UTC (9 minutes ago) Visual Flight Rules
Wind Visibility Clouds Conditions
270° at 7 knots
 Gusting to 16 knots
10 miles
  • Scattered at 8,000' AGL
  • Overcast at 11,000' AGL
  • Light Thunderstorm
  • Light Rain
Temperatures Readings
Current 19°C / 66°F
Dewpoint 11°C / 52°F
Humidity 60%
Altimeter 29.96" Hg
Pressure 1015 hPa
Elevation 1501
METAR KIBM 230315Z AUTO 27007G16KT 10SM -TSRA SCT080 OVC110 19/11 A2996 RMK AO2 LTG DSNT NW T01870106
Observed Flight Rules
May-23 @ 03:15 UTC
(9 minutes ago)
VFR
Wind Visibility
270° at 7 knots
 Gusting to 16 knots
10 miles
Clouds
  • Scattered at 8,000' AGL
  • Overcast at 11,000' AGL
Conditions
  • Light Thunderstorm
  • Light Rain
Temperature Dewpoint
19°C / 66°F 11°C / 52°F
Humidity Altimeter Pressure
60% 29.96" Hg 1015 hPa